sensor_id;sensor_type;location;lat;lon;timestamp;P1;durP1;ratioP1;P2;durP2;ratioP2
76138;SDS011;65138;50.946;7.074;2022-11-20T07:03:14;9.45;;;4.85;;
76138;SDS011;65138;50.946;7.074;2022-11-20T07:05:40;10.48;;;6.88;;
76138;SDS011;65138;50.946;7.074;2022-11-20T07:08:06;9.07;;;6.80;;
76138;SDS011;65138;50.946;7.074;2022-11-20T07:10:32;10.75;;;6.60;;
76138;SDS011;65138;50.946;7.074;2022-11-20T07:12:58;8.23;;;6.13;;
76138;SDS011;65138;50.946;7.074;2022-11-20T07:15:24;7.88;;;5.57;;
76138;SDS011;65138;50.946;7.074;2022-11-20T07:17:51;6.40;;;3.83;;
76138;SDS011;65138;50.946;7.074;2022-11-20T07:20:17;6.97;;;4.15;;
76138;SDS011;65138;50.946;7.074;2022-11-20T07:22:43;5.07;;;3.60;;
76138;SDS011;65138;50.946;7.074;2022-11-20T07:25:09;5.88;;;4.68;;
76138;SDS011;65138;50.946;7.074;2022-11-20T07:27:35;4.85;;;3.35;;
76138;SDS011;65138;50.946;7.074;2022-11-20T07:30:02;6.57;;;4.75;;
76138;SDS011;65138;50.946;7.074;2022-11-20T07:32:28;4.97;;;3.92;;
76138;SDS011;65138;50.946;7.074;2022-11-20T07:34:54;5.45;;;4.18;;
76138;SDS011;65138;50.946;7.074;2022-11-20T07:37:19;4.55;;;3.95;;
76138;SDS011;65138;50.946;7.074;2022-11-20T07:39:45;4.55;;;3.85;;
76138;SDS011;65138;50.946;7.074;2022-11-20T07:42:10;4.03;;;3.17;;
76138;SDS011;65138;50.946;7.074;2022-11-20T07:44:37;5.40;;;4.15;;
76138;SDS011;65138;50.946;7.074;2022-11-20T07:47:03;4.43;;;3.45;;
76138;SDS011;65138;50.946;7.074;2022-11-20T07:49:29;4.90;;;3.83;;
76138;SDS011;65138;50.946;7.074;2022-11-20T07:51:55;4.43;;;3.70;;
76138;SDS011;65138;50.946;7.074;2022-11-20T07:54:21;4.95;;;3.78;;
76138;SDS011;65138;50.946;7.074;2022-11-20T07:56:47;5.45;;;3.90;;
76138;SDS011;65138;50.946;7.074;2022-11-20T07:59:14;4.68;;;3.70;;
76138;SDS011;65138;50.946;7.074;2022-11-20T08:01:40;3.63;;;3.28;;
76138;SDS011;65138;50.946;7.074;2022-11-20T08:04:07;5.43;;;3.78;;
76138;SDS011;65138;50.946;7.074;2022-11-20T08:06:32;4.40;;;3.78;;
76138;SDS011;65138;50.946;7.074;2022-11-20T08:08:59;4.30;;;3.65;;
76138;SDS011;65138;50.946;7.074;2022-11-20T08:11:25;4.50;;;3.85;;
76138;SDS011;65138;50.946;7.074;2022-11-20T08:14:09;4.28;;;3.72;;
76138;SDS011;65138;50.946;7.074;2022-11-20T08:16:47;3.95;;;3.28;;
76138;SDS011;65138;50.946;7.074;2022-11-20T08:19:14;4.22;;;3.47;;
76138;SDS011;65138;50.946;7.074;2022-11-20T08:21:41;4.25;;;3.60;;
76138;SDS011;65138;50.946;7.074;2022-11-20T08:24:08;4.25;;;3.70;;
76138;SDS011;65138;50.946;7.074;2022-11-20T08:26:35;4.05;;;3.30;;
76138;SDS011;65138;50.946;7.074;2022-11-20T08:29:01;3.80;;;3.40;;
76138;SDS011;65138;50.946;7.074;2022-11-20T08:31:28;4.15;;;3.83;;
76138;SDS011;65138;50.946;7.074;2022-11-20T08:33:54;4.07;;;3.67;;
76138;SDS011;65138;50.946;7.074;2022-11-20T08:36:21;4.38;;;3.40;;
76138;SDS011;65138;50.946;7.074;2022-11-20T08:38:47;5.32;;;4.22;;
76138;SDS011;65138;50.946;7.074;2022-11-20T08:41:14;4.75;;;3.60;;
76138;SDS011;65138;50.946;7.074;2022-11-20T08:43:57;4.53;;;3.85;;
76138;SDS011;65138;50.946;7.074;2022-11-20T08:46:35;4.65;;;3.97;;
76138;SDS011;65138;50.946;7.074;2022-11-20T08:49:06;4.25;;;3.60;;
76138;SDS011;65138;50.946;7.074;2022-11-20T08:51:33;3.97;;;3.55;;
76138;SDS011;65138;50.946;7.074;2022-11-20T08:53:59;4.05;;;3.65;;
76138;SDS011;65138;50.946;7.074;2022-11-20T08:56:24;5.28;;;4.10;;
76138;SDS011;65138;50.946;7.074;2022-11-20T08:58:50;3.75;;;3.45;;
76138;SDS011;65138;50.946;7.074;2022-11-20T09:01:17;3.78;;;3.38;;
76138;SDS011;65138;50.946;7.074;2022-11-20T09:03:44;4.78;;;3.97;;
76138;SDS011;65138;50.946;7.074;2022-11-20T09:06:09;4.55;;;4.13;;
76138;SDS011;65138;50.946;7.074;2022-11-20T09:08:35;4.30;;;3.78;;
76138;SDS011;65138;50.946;7.074;2022-11-20T09:11:01;4.70;;;3.97;;
76138;SDS011;65138;50.946;7.074;2022-11-20T09:13:28;5.18;;;3.55;;
76138;SDS011;65138;50.946;7.074;2022-11-20T09:15:55;4.68;;;4.03;;
76138;SDS011;65138;50.946;7.074;2022-11-20T09:18:25;4.55;;;4.07;;
76138;SDS011;65138;50.946;7.074;2022-11-20T09:20:55;3.97;;;3.40;;
76138;SDS011;65138;50.946;7.074;2022-11-20T09:23:22;3.92;;;3.45;;
76138;SDS011;65138;50.946;7.074;2022-11-20T09:25:48;4.32;;;3.60;;
76138;SDS011;65138;50.946;7.074;2022-11-20T09:28:13;4.72;;;3.97;;
76138;SDS011;65138;50.946;7.074;2022-11-20T09:30:39;4.43;;;4.00;;
76138;SDS011;65138;50.946;7.074;2022-11-20T09:33:05;4.97;;;4.05;;
76138;SDS011;65138;50.946;7.074;2022-11-20T09:35:31;5.28;;;4.65;;
76138;SDS011;65138;50.946;7.074;2022-11-20T09:37:57;7.05;;;5.80;;
76138;SDS011;65138;50.946;7.074;2022-11-20T09:40:24;6.10;;;5.50;;
76138;SDS011;65138;50.946;7.074;2022-11-20T09:42:54;9.93;;;5.90;;
76138;SDS011;65138;50.946;7.074;2022-11-20T09:48:25;6.28;;;5.68;;
76138;SDS011;65138;50.946;7.074;2022-11-20T09:51:16;6.32;;;4.80;;
76138;SDS011;65138;50.946;7.074;2022-11-20T09:56:37;8.38;;;4.93;;
76138;SDS011;65138;50.946;7.074;2022-11-20T09:59:07;9.50;;;5.35;;
76138;SDS011;65138;50.946;7.074;2022-11-20T10:01:42;11.48;;;9.15;;
76138;SDS011;65138;50.946;7.074;2022-11-20T10:04:13;10.27;;;7.97;;
76138;SDS011;65138;50.946;7.074;2022-11-20T10:09:34;6.95;;;5.72;;
76138;SDS011;65138;50.946;7.074;2022-11-20T10:14:53;6.97;;;5.47;;
76138;SDS011;65138;50.946;7.074;2022-11-20T10:23:11;6.35;;;5.47;;
76138;SDS011;65138;50.946;7.074;2022-11-20T10:31:28;7.35;;;4.60;;
76138;SDS011;65138;50.946;7.074;2022-11-20T10:33:57;6.13;;;3.70;;
76138;SDS011;65138;50.946;7.074;2022-11-20T10:36:27;7.63;;;4.15;;
76138;SDS011;65138;50.946;7.074;2022-11-20T10:39:03;8.00;;;4.32;;
76138;SDS011;65138;50.946;7.074;2022-11-20T10:41:40;7.20;;;4.28;;
76138;SDS011;65138;50.946;7.074;2022-11-20T10:44:20;6.95;;;4.47;;
76138;SDS011;65138;50.946;7.074;2022-11-20T10:47:11;7.05;;;4.05;;
76138;SDS011;65138;50.946;7.074;2022-11-20T10:49:39;8.15;;;4.20;;
76138;SDS011;65138;50.946;7.074;2022-11-20T10:52:16;6.57;;;4.93;;
76138;SDS011;65138;50.946;7.074;2022-11-20T10:55:22;5.97;;;4.57;;
76138;SDS011;65138;50.946;7.074;2022-11-20T11:00:49;6.78;;;4.82;;
76138;SDS011;65138;50.946;7.074;2022-11-20T11:03:26;7.50;;;4.95;;
76138;SDS011;65138;50.946;7.074;2022-11-20T11:06:00;5.55;;;4.47;;
76138;SDS011;65138;50.946;7.074;2022-11-20T11:08:44;5.50;;;4.32;;
76138;SDS011;65138;50.946;7.074;2022-11-20T11:11:23;8.38;;;4.90;;
76138;SDS011;65138;50.946;7.074;2022-11-20T11:13:51;5.13;;;4.45;;
76138;SDS011;65138;50.946;7.074;2022-11-20T11:16:35;8.20;;;4.80;;
76138;SDS011;65138;50.946;7.074;2022-11-20T11:19:12;4.43;;;4.03;;
76138;SDS011;65138;50.946;7.074;2022-11-20T11:21:38;6.35;;;4.13;;
76138;SDS011;65138;50.946;7.074;2022-11-20T11:24:29;5.72;;;3.53;;
76138;SDS011;65138;50.946;7.074;2022-11-20T11:26:59;4.88;;;4.15;;
76138;SDS011;65138;50.946;7.074;2022-11-20T11:29:29;5.35;;;4.50;;
76138;SDS011;65138;50.946;7.074;2022-11-20T11:32:05;5.15;;;4.43;;
76138;SDS011;65138;50.946;7.074;2022-11-20T11:34:33;4.82;;;4.13;;
76138;SDS011;65138;50.946;7.074;2022-11-20T11:36:59;5.13;;;4.13;;
76138;SDS011;65138;50.946;7.074;2022-11-20T11:39:28;5.55;;;4.78;;
76138;SDS011;65138;50.946;7.074;2022-11-20T11:41:55;5.72;;;4.63;;
76138;SDS011;65138;50.946;7.074;2022-11-20T11:44:28;7.75;;;4.93;;
76138;SDS011;65138;50.946;7.074;2022-11-20T11:47:25;5.90;;;4.93;;
76138;SDS011;65138;50.946;7.074;2022-11-20T11:52:42;4.93;;;4.35;;
76138;SDS011;65138;50.946;7.074;2022-11-20T12:03:42;9.23;;;5.05;;
76138;SDS011;65138;50.946;7.074;2022-11-20T12:06:17;8.55;;;4.68;;
76138;SDS011;65138;50.946;7.074;2022-11-20T12:08:53;15.75;;;5.90;;
76138;SDS011;65138;50.946;7.074;2022-11-20T12:14:14;27.50;;;6.95;;
76138;SDS011;65138;50.946;7.074;2022-11-20T12:16:49;16.90;;;5.38;;
76138;SDS011;65138;50.946;7.074;2022-11-20T12:19:15;23.15;;;5.75;;
76138;SDS011;65138;50.946;7.074;2022-11-20T12:38:15;10.48;;;4.85;;
76138;SDS011;65138;50.946;7.074;2022-11-20T12:46:56;10.00;;;4.82;;
76138;SDS011;65138;50.946;7.074;2022-11-20T12:50:14;10.80;;;4.45;;
76138;SDS011;65138;50.946;7.074;2022-11-20T12:55:21;8.25;;;4.68;;
76138;SDS011;65138;50.946;7.074;2022-11-20T13:00:38;8.43;;;4.25;;
76138;SDS011;65138;50.946;7.074;2022-11-20T13:03:31;9.80;;;5.10;;
76138;SDS011;65138;50.946;7.074;2022-11-20T13:06:16;7.53;;;5.10;;
76138;SDS011;65138;50.946;7.074;2022-11-20T13:08:45;8.13;;;5.05;;
76138;SDS011;65138;50.946;7.074;2022-11-20T13:17:30;6.65;;;4.40;;
76138;SDS011;65138;50.946;7.074;2022-11-20T13:20:02;8.23;;;5.28;;
76138;SDS011;65138;50.946;7.074;2022-11-20T13:22:52;5.63;;;4.63;;
76138;SDS011;65138;50.946;7.074;2022-11-20T13:27:56;6.78;;;4.55;;
76138;SDS011;65138;50.946;7.074;2022-11-20T13:30:27;6.32;;;4.82;;
76138;SDS011;65138;50.946;7.074;2022-11-20T13:32:57;6.68;;;5.13;;
76138;SDS011;65138;50.946;7.074;2022-11-20T13:35:33;6.80;;;4.75;;
76138;SDS011;65138;50.946;7.074;2022-11-20T13:40:37;7.40;;;5.32;;
76138;SDS011;65138;50.946;7.074;2022-11-20T13:43:20;13.48;;;4.95;;
76138;SDS011;65138;50.946;7.074;2022-11-20T13:46:01;6.47;;;4.80;;
76138;SDS011;65138;50.946;7.074;2022-11-20T13:48:30;6.50;;;4.57;;
76138;SDS011;65138;50.946;7.074;2022-11-20T13:56:56;4.57;;;4.05;;
76138;SDS011;65138;50.946;7.074;2022-11-20T13:59:40;6.10;;;4.75;;
76138;SDS011;65138;50.946;7.074;2022-11-20T14:02:17;5.78;;;4.68;;
76138;SDS011;65138;50.946;7.074;2022-11-20T14:04:46;5.80;;;4.68;;
76138;SDS011;65138;50.946;7.074;2022-11-20T14:07:15;5.90;;;4.97;;
76138;SDS011;65138;50.946;7.074;2022-11-20T14:09:49;5.88;;;4.80;;
76138;SDS011;65138;50.946;7.074;2022-11-20T14:12:20;7.47;;;4.63;;
76138;SDS011;65138;50.946;7.074;2022-11-20T14:14:51;6.88;;;4.72;;
76138;SDS011;65138;50.946;7.074;2022-11-20T14:17:21;6.05;;;4.85;;
76138;SDS011;65138;50.946;7.074;2022-11-20T14:19:50;5.07;;;4.07;;
76138;SDS011;65138;50.946;7.074;2022-11-20T14:22:23;4.63;;;3.97;;
76138;SDS011;65138;50.946;7.074;2022-11-20T14:27:52;5.68;;;3.97;;
76138;SDS011;65138;50.946;7.074;2022-11-20T14:30:20;5.72;;;4.35;;
76138;SDS011;65138;50.946;7.074;2022-11-20T14:32:48;5.05;;;3.80;;
76138;SDS011;65138;50.946;7.074;2022-11-20T14:35:26;6.85;;;4.55;;
76138;SDS011;65138;50.946;7.074;2022-11-20T14:37:56;4.80;;;4.13;;
76138;SDS011;65138;50.946;7.074;2022-11-20T14:42:53;5.43;;;4.10;;
76138;SDS011;65138;50.946;7.074;2022-11-20T14:45:19;5.85;;;4.30;;
76138;SDS011;65138;50.946;7.074;2022-11-20T14:47:46;5.00;;;4.20;;
76138;SDS011;65138;50.946;7.074;2022-11-20T14:50:22;4.97;;;3.92;;
76138;SDS011;65138;50.946;7.074;2022-11-20T14:52:51;5.80;;;4.13;;
76138;SDS011;65138;50.946;7.074;2022-11-20T14:55:25;4.68;;;3.28;;
76138;SDS011;65138;50.946;7.074;2022-11-20T14:58:04;5.18;;;4.20;;
76138;SDS011;65138;50.946;7.074;2022-11-20T15:00:44;5.90;;;4.30;;
76138;SDS011;65138;50.946;7.074;2022-11-20T15:03:23;5.47;;;4.28;;
76138;SDS011;65138;50.946;7.074;2022-11-20T15:05:55;5.72;;;4.10;;
76138;SDS011;65138;50.946;7.074;2022-11-20T15:08:21;4.97;;;3.97;;
76138;SDS011;65138;50.946;7.074;2022-11-20T15:10:50;4.55;;;3.47;;
76138;SDS011;65138;50.946;7.074;2022-11-20T15:13:23;4.43;;;3.67;;
76138;SDS011;65138;50.946;7.074;2022-11-20T15:15:55;5.53;;;3.22;;
76138;SDS011;65138;50.946;7.074;2022-11-20T15:18:30;4.75;;;4.05;;
76138;SDS011;65138;50.946;7.074;2022-11-20T15:20:58;5.15;;;4.28;;
76138;SDS011;65138;50.946;7.074;2022-11-20T15:23:26;4.60;;;4.10;;
76138;SDS011;65138;50.946;7.074;2022-11-20T15:25:53;4.57;;;3.20;;
76138;SDS011;65138;50.946;7.074;2022-11-20T15:28:19;5.03;;;4.05;;
76138;SDS011;65138;50.946;7.074;2022-11-20T15:30:59;6.20;;;4.30;;
76138;SDS011;65138;50.946;7.074;2022-11-20T15:33:27;4.95;;;4.00;;
76138;SDS011;65138;50.946;7.074;2022-11-20T15:35:52;5.28;;;4.15;;
76138;SDS011;65138;50.946;7.074;2022-11-20T15:38:18;4.57;;;3.63;;
76138;SDS011;65138;50.946;7.074;2022-11-20T15:40:44;4.68;;;3.88;;
76138;SDS011;65138;50.946;7.074;2022-11-20T15:43:09;4.43;;;3.08;;
76138;SDS011;65138;50.946;7.074;2022-11-20T15:45:41;4.88;;;3.70;;
76138;SDS011;65138;50.946;7.074;2022-11-20T15:48:16;6.20;;;4.25;;
76138;SDS011;65138;50.946;7.074;2022-11-20T15:53:15;5.22;;;3.67;;
76138;SDS011;65138;50.946;7.074;2022-11-20T15:55:41;4.20;;;3.42;;
76138;SDS011;65138;50.946;7.074;2022-11-20T15:58:07;4.97;;;4.05;;
76138;SDS011;65138;50.946;7.074;2022-11-20T16:00:32;6.10;;;4.55;;
76138;SDS011;65138;50.946;7.074;2022-11-20T16:02:58;5.03;;;3.63;;
76138;SDS011;65138;50.946;7.074;2022-11-20T16:05:23;5.28;;;3.88;;
76138;SDS011;65138;50.946;7.074;2022-11-20T16:07:52;6.28;;;4.15;;
76138;SDS011;65138;50.946;7.074;2022-11-20T16:10:18;4.65;;;3.90;;
76138;SDS011;65138;50.946;7.074;2022-11-20T16:12:43;5.05;;;3.85;;
76138;SDS011;65138;50.946;7.074;2022-11-20T16:15:28;5.22;;;3.97;;
76138;SDS011;65138;50.946;7.074;2022-11-20T16:18:20;4.80;;;3.65;;
76138;SDS011;65138;50.946;7.074;2022-11-20T16:20:48;5.25;;;4.13;;
76138;SDS011;65138;50.946;7.074;2022-11-20T16:23:16;6.15;;;4.38;;
76138;SDS011;65138;50.946;7.074;2022-11-20T16:25:42;6.05;;;4.80;;
76138;SDS011;65138;50.946;7.074;2022-11-20T16:28:08;5.88;;;4.53;;
76138;SDS011;65138;50.946;7.074;2022-11-20T16:30:35;5.68;;;4.28;;
76138;SDS011;65138;50.946;7.074;2022-11-20T16:33:01;5.82;;;3.83;;
76138;SDS011;65138;50.946;7.074;2022-11-20T16:35:27;6.90;;;4.60;;
76138;SDS011;65138;50.946;7.074;2022-11-20T16:37:54;6.00;;;4.18;;
76138;SDS011;65138;50.946;7.074;2022-11-20T16:40:21;8.10;;;5.45;;
76138;SDS011;65138;50.946;7.074;2022-11-20T16:42:46;7.13;;;4.97;;
76138;SDS011;65138;50.946;7.074;2022-11-20T16:45:12;6.97;;;4.88;;
76138;SDS011;65138;50.946;7.074;2022-11-20T16:47:38;5.72;;;4.70;;
76138;SDS011;65138;50.946;7.074;2022-11-20T16:50:04;5.57;;;4.60;;
76138;SDS011;65138;50.946;7.074;2022-11-20T16:52:30;4.88;;;3.35;;
76138;SDS011;65138;50.946;7.074;2022-11-20T16:54:56;5.88;;;4.55;;
76138;SDS011;65138;50.946;7.074;2022-11-20T16:57:22;5.72;;;4.13;;
76138;SDS011;65138;50.946;7.074;2022-11-20T16:59:48;5.93;;;3.20;;
76138;SDS011;65138;50.946;7.074;2022-11-20T17:02:14;4.95;;;4.22;;
76138;SDS011;65138;50.946;7.074;2022-11-20T17:04:40;4.95;;;4.03;;
76138;SDS011;65138;50.946;7.074;2022-11-20T17:07:06;5.78;;;3.95;;
76138;SDS011;65138;50.946;7.074;2022-11-20T17:09:32;4.30;;;3.80;;
76138;SDS011;65138;50.946;7.074;2022-11-20T17:11:58;5.65;;;4.10;;
76138;SDS011;65138;50.946;7.074;2022-11-20T17:14:23;5.30;;;4.47;;
76138;SDS011;65138;50.946;7.074;2022-11-20T17:16:49;4.93;;;3.88;;
76138;SDS011;65138;50.946;7.074;2022-11-20T17:19:15;4.18;;;3.58;;
76138;SDS011;65138;50.946;7.074;2022-11-20T17:21:40;5.60;;;3.63;;
76138;SDS011;65138;50.946;7.074;2022-11-20T17:24:07;5.60;;;4.05;;
76138;SDS011;65138;50.946;7.074;2022-11-20T17:26:35;5.00;;;3.70;;
76138;SDS011;65138;50.946;7.074;2022-11-20T17:29:03;4.63;;;3.75;;
76138;SDS011;65138;50.946;7.074;2022-11-20T17:31:37;4.05;;;3.65;;
76138;SDS011;65138;50.946;7.074;2022-11-20T17:34:03;4.82;;;3.35;;
76138;SDS011;65138;50.946;7.074;2022-11-20T17:36:29;4.82;;;3.83;;
76138;SDS011;65138;50.946;7.074;2022-11-20T17:38:56;6.65;;;3.28;;
76138;SDS011;65138;50.946;7.074;2022-11-20T17:41:22;4.40;;;2.97;;
76138;SDS011;65138;50.946;7.074;2022-11-20T17:43:52;4.22;;;2.20;;
76138;SDS011;65138;50.946;7.074;2022-11-20T17:46:20;8.43;;;2.67;;
76138;SDS011;65138;50.946;7.074;2022-11-20T17:48:47;7.13;;;2.85;;
76138;SDS011;65138;50.946;7.074;2022-11-20T17:51:15;5.00;;;2.22;;
76138;SDS011;65138;50.946;7.074;2022-11-20T17:53:49;5.82;;;2.92;;
76138;SDS011;65138;50.946;7.074;2022-11-20T17:56:16;3.45;;;2.75;;
76138;SDS011;65138;50.946;7.074;2022-11-20T17:59:04;3.53;;;2.42;;
76138;SDS011;65138;50.946;7.074;2022-11-20T18:03:56;5.68;;;2.35;;
76138;SDS011;65138;50.946;7.074;2022-11-20T18:06:23;2.65;;;1.55;;
76138;SDS011;65138;50.946;7.074;2022-11-20T18:08:50;3.25;;;1.70;;
76138;SDS011;65138;50.946;7.074;2022-11-20T18:11:17;4.85;;;2.72;;
76138;SDS011;65138;50.946;7.074;2022-11-20T18:13:45;6.07;;;2.55;;
76138;SDS011;65138;50.946;7.074;2022-11-20T18:16:32;3.50;;;2.60;;
76138;SDS011;65138;50.946;7.074;2022-11-20T18:19:00;4.85;;;2.75;;
76138;SDS011;65138;50.946;7.074;2022-11-20T18:21:26;4.82;;;2.38;;
76138;SDS011;65138;50.946;7.074;2022-11-20T18:23:53;5.35;;;2.72;;
76138;SDS011;65138;50.946;7.074;2022-11-20T18:26:19;7.25;;;3.33;;
76138;SDS011;65138;50.946;7.074;2022-11-20T18:28:46;9.43;;;4.03;;
76138;SDS011;65138;50.946;7.074;2022-11-20T18:31:11;10.13;;;3.78;;
76138;SDS011;65138;50.946;7.074;2022-11-20T18:33:38;11.50;;;5.07;;
76138;SDS011;65138;50.946;7.074;2022-11-20T18:36:07;25.30;;;6.63;;
76138;SDS011;65138;50.946;7.074;2022-11-20T18:38:34;29.42;;;7.85;;
76138;SDS011;65138;50.946;7.074;2022-11-20T18:40:59;38.55;;;9.02;;
76138;SDS011;65138;50.946;7.074;2022-11-20T18:43:25;26.33;;;7.55;;
76138;SDS011;65138;50.946;7.074;2022-11-20T18:46:09;23.73;;;7.50;;
76138;SDS011;65138;50.946;7.074;2022-11-20T18:48:34;13.35;;;4.93;;
76138;SDS011;65138;50.946;7.074;2022-11-20T18:51:04;11.00;;;4.57;;
76138;SDS011;65138;50.946;7.074;2022-11-20T18:53:30;13.93;;;5.03;;
76138;SDS011;65138;50.946;7.074;2022-11-20T18:55:56;20.40;;;5.63;;
76138;SDS011;65138;50.946;7.074;2022-11-20T18:58:21;22.13;;;7.03;;
76138;SDS011;65138;50.946;7.074;2022-11-20T19:00:47;28.55;;;7.28;;
76138;SDS011;65138;50.946;7.074;2022-11-20T19:03:12;23.80;;;7.65;;
76138;SDS011;65138;50.946;7.074;2022-11-20T19:05:38;25.73;;;7.57;;
76138;SDS011;65138;50.946;7.074;2022-11-20T19:08:04;27.33;;;7.22;;
76138;SDS011;65138;50.946;7.074;2022-11-20T19:10:29;23.13;;;6.78;;
76138;SDS011;65138;50.946;7.074;2022-11-20T19:12:55;27.38;;;8.15;;
76138;SDS011;65138;50.946;7.074;2022-11-20T19:15:22;19.05;;;7.13;;
76138;SDS011;65138;50.946;7.074;2022-11-20T19:17:48;21.35;;;7.60;;
76138;SDS011;65138;50.946;7.074;2022-11-20T19:20:13;19.67;;;5.90;;
76138;SDS011;65138;50.946;7.074;2022-11-20T19:22:39;17.63;;;6.18;;
76138;SDS011;65138;50.946;7.074;2022-11-20T19:25:05;16.85;;;6.00;;
76138;SDS011;65138;50.946;7.074;2022-11-20T19:27:31;19.75;;;6.95;;
76138;SDS011;65138;50.946;7.074;2022-11-20T19:29:56;15.18;;;4.78;;
76138;SDS011;65138;50.946;7.074;2022-11-20T19:32:27;16.00;;;5.85;;
76138;SDS011;65138;50.946;7.074;2022-11-20T19:34:52;16.52;;;5.40;;
76138;SDS011;65138;50.946;7.074;2022-11-20T19:37:18;14.43;;;5.47;;
76138;SDS011;65138;50.946;7.074;2022-11-20T19:39:43;14.20;;;5.30;;
76138;SDS011;65138;50.946;7.074;2022-11-20T19:42:09;13.55;;;5.80;;
76138;SDS011;65138;50.946;7.074;2022-11-20T19:44:35;11.95;;;4.50;;
76138;SDS011;65138;50.946;7.074;2022-11-20T19:47:00;12.90;;;4.88;;
76138;SDS011;65138;50.946;7.074;2022-11-20T19:49:28;10.77;;;4.68;;
76138;SDS011;65138;50.946;7.074;2022-11-20T19:51:53;12.90;;;4.38;;
76138;SDS011;65138;50.946;7.074;2022-11-20T19:54:20;13.60;;;4.47;;
76138;SDS011;65138;50.946;7.074;2022-11-20T19:56:45;10.20;;;3.72;;
76138;SDS011;65138;50.946;7.074;2022-11-20T19:59:13;8.38;;;3.97;;
76138;SDS011;65138;50.946;7.074;2022-11-20T20:01:39;10.50;;;4.65;;
76138;SDS011;65138;50.946;7.074;2022-11-20T20:04:04;10.57;;;4.10;;
76138;SDS011;65138;50.946;7.074;2022-11-20T20:06:31;13.32;;;5.05;;
76138;SDS011;65138;50.946;7.074;2022-11-20T20:09:06;10.82;;;4.15;;
76138;SDS011;65138;50.946;7.074;2022-11-20T20:11:33;9.77;;;3.67;;
76138;SDS011;65138;50.946;7.074;2022-11-20T20:14:11;8.40;;;3.53;;
76138;SDS011;65138;50.946;7.074;2022-11-20T20:16:38;9.57;;;3.72;;
76138;SDS011;65138;50.946;7.074;2022-11-20T20:19:04;7.60;;;3.50;;
76138;SDS011;65138;50.946;7.074;2022-11-20T20:21:30;9.40;;;3.17;;
76138;SDS011;65138;50.946;7.074;2022-11-20T20:23:58;7.70;;;3.45;;
76138;SDS011;65138;50.946;7.074;2022-11-20T20:26:24;9.23;;;3.17;;
76138;SDS011;65138;50.946;7.074;2022-11-20T20:28:51;7.72;;;3.85;;
76138;SDS011;65138;50.946;7.074;2022-11-20T20:31:18;7.30;;;3.38;;
76138;SDS011;65138;50.946;7.074;2022-11-20T20:33:46;7.93;;;2.88;;
76138;SDS011;65138;50.946;7.074;2022-11-20T20:36:12;6.90;;;2.92;;
76138;SDS011;65138;50.946;7.074;2022-11-20T20:38:39;7.93;;;2.58;;
76138;SDS011;65138;50.946;7.074;2022-11-20T20:41:06;6.25;;;3.00;;
76138;SDS011;65138;50.946;7.074;2022-11-20T20:43:31;6.38;;;2.67;;
76138;SDS011;65138;50.946;7.074;2022-11-20T20:46:17;6.18;;;2.97;;
76138;SDS011;65138;50.946;7.074;2022-11-20T20:48:43;9.90;;;2.92;;
76138;SDS011;65138;50.946;7.074;2022-11-20T20:51:09;6.78;;;2.72;;
76138;SDS011;65138;50.946;7.074;2022-11-20T20:53:34;5.85;;;2.70;;
76138;SDS011;65138;50.946;7.074;2022-11-20T20:56:00;5.88;;;2.55;;
76138;SDS011;65138;50.946;7.074;2022-11-20T20:58:27;5.70;;;2.40;;
76138;SDS011;65138;50.946;7.074;2022-11-20T21:00:54;5.57;;;2.88;;
76138;SDS011;65138;50.946;7.074;2022-11-20T21:03:25;6.38;;;2.60;;
76138;SDS011;65138;50.946;7.074;2022-11-20T21:05:54;7.55;;;2.40;;
76138;SDS011;65138;50.946;7.074;2022-11-20T21:08:24;4.45;;;2.72;;
76138;SDS011;65138;50.946;7.074;2022-11-20T21:10:51;7.22;;;2.75;;
76138;SDS011;65138;50.946;7.074;2022-11-20T21:13:18;5.63;;;1.58;;
76138;SDS011;65138;50.946;7.074;2022-11-20T21:15:45;6.97;;;2.30;;
76138;SDS011;65138;50.946;7.074;2022-11-20T21:18:13;5.65;;;2.42;;
76138;SDS011;65138;50.946;7.074;2022-11-20T21:20:40;6.38;;;2.13;;
76138;SDS011;65138;50.946;7.074;2022-11-20T21:23:24;5.32;;;2.33;;
76138;SDS011;65138;50.946;7.074;2022-11-20T21:25:50;5.55;;;2.25;;
76138;SDS011;65138;50.946;7.074;2022-11-20T21:28:15;5.60;;;2.65;;
76138;SDS011;65138;50.946;7.074;2022-11-20T21:30:41;7.63;;;2.25;;
76138;SDS011;65138;50.946;7.074;2022-11-20T21:33:07;4.32;;;1.70;;
76138;SDS011;65138;50.946;7.074;2022-11-20T21:35:33;3.15;;;2.03;;
76138;SDS011;65138;50.946;7.074;2022-11-20T21:37:59;3.65;;;1.90;;
76138;SDS011;65138;50.946;7.074;2022-11-20T21:40:24;4.50;;;2.30;;
76138;SDS011;65138;50.946;7.074;2022-11-20T21:42:51;3.97;;;1.55;;
76138;SDS011;65138;50.946;7.074;2022-11-20T21:45:17;4.20;;;1.70;;
76138;SDS011;65138;50.946;7.074;2022-11-20T21:47:43;3.95;;;1.88;;
76138;SDS011;65138;50.946;7.074;2022-11-20T21:50:08;5.05;;;1.70;;
76138;SDS011;65138;50.946;7.074;2022-11-20T21:52:34;3.92;;;1.83;;
76138;SDS011;65138;50.946;7.074;2022-11-20T21:55:00;4.00;;;1.50;;
76138;SDS011;65138;50.946;7.074;2022-11-20T21:57:25;6.15;;;1.70;;
76138;SDS011;65138;50.946;7.074;2022-11-20T21:59:51;3.70;;;1.58;;
76138;SDS011;65138;50.946;7.074;2022-11-20T22:02:16;3.20;;;1.80;;
76138;SDS011;65138;50.946;7.074;2022-11-20T22:04:42;3.75;;;1.70;;
76138;SDS011;65138;50.946;7.074;2022-11-20T22:07:08;4.68;;;1.73;;
76138;SDS011;65138;50.946;7.074;2022-11-20T22:09:33;3.97;;;1.23;;
76138;SDS011;65138;50.946;7.074;2022-11-20T22:11:59;4.95;;;2.08;;
76138;SDS011;65138;50.946;7.074;2022-11-20T22:14:24;3.47;;;1.33;;
76138;SDS011;65138;50.946;7.074;2022-11-20T22:16:51;3.83;;;1.65;;
76138;SDS011;65138;50.946;7.074;2022-11-20T22:19:18;5.60;;;1.30;;
76138;SDS011;65138;50.946;7.074;2022-11-20T22:21:44;3.28;;;1.40;;
76138;SDS011;65138;50.946;7.074;2022-11-20T22:24:11;4.32;;;1.60;;
76138;SDS011;65138;50.946;7.074;2022-11-20T22:26:38;3.70;;;1.45;;
76138;SDS011;65138;50.946;7.074;2022-11-20T22:29:04;4.05;;;1.55;;
76138;SDS011;65138;50.946;7.074;2022-11-20T22:31:30;5.35;;;1.52;;
76138;SDS011;65138;50.946;7.074;2022-11-20T22:33:56;3.03;;;1.50;;
76138;SDS011;65138;50.946;7.074;2022-11-20T22:36:25;4.82;;;1.65;;
76138;SDS011;65138;50.946;7.074;2022-11-20T22:38:55;4.28;;;1.70;;
76138;SDS011;65138;50.946;7.074;2022-11-20T22:41:25;4.05;;;1.23;;
76138;SDS011;65138;50.946;7.074;2022-11-20T22:43:55;3.78;;;1.27;;
76138;SDS011;65138;50.946;7.074;2022-11-20T22:46:29;3.10;;;1.38;;
76138;SDS011;65138;50.946;7.074;2022-11-20T22:48:57;3.90;;;1.80;;
76138;SDS011;65138;50.946;7.074;2022-11-20T22:51:31;3.53;;;2.03;;
76138;SDS011;65138;50.946;7.074;2022-11-20T22:54:01;3.33;;;1.25;;
76138;SDS011;65138;50.946;7.074;2022-11-20T22:56:27;3.58;;;1.42;;
76138;SDS011;65138;50.946;7.074;2022-11-20T22:58:53;3.72;;;1.58;;
76138;SDS011;65138;50.946;7.074;2022-11-20T23:01:23;3.90;;;1.70;;
76138;SDS011;65138;50.946;7.074;2022-11-20T23:06:45;3.25;;;1.40;;
76138;SDS011;65138;50.946;7.074;2022-11-20T23:09:10;3.85;;;1.48;;
76138;SDS011;65138;50.946;7.074;2022-11-20T23:11:37;4.15;;;1.90;;
76138;SDS011;65138;50.946;7.074;2022-11-20T23:14:07;2.95;;;1.73;;
76138;SDS011;65138;50.946;7.074;2022-11-20T23:16:36;3.30;;;1.20;;
76138;SDS011;65138;50.946;7.074;2022-11-20T23:19:05;5.00;;;2.05;;
76138;SDS011;65138;50.946;7.074;2022-11-20T23:21:33;3.13;;;1.25;;
76138;SDS011;65138;50.946;7.074;2022-11-20T23:23:59;3.50;;;1.48;;
76138;SDS011;65138;50.946;7.074;2022-11-20T23:26:27;3.63;;;1.80;;
76138;SDS011;65138;50.946;7.074;2022-11-20T23:28:54;3.47;;;1.65;;
76138;SDS011;65138;50.946;7.074;2022-11-20T23:31:22;4.05;;;1.00;;
76138;SDS011;65138;50.946;7.074;2022-11-20T23:33:48;3.22;;;1.40;;
76138;SDS011;65138;50.946;7.074;2022-11-20T23:36:14;4.63;;;2.00;;
76138;SDS011;65138;50.946;7.074;2022-11-20T23:38:40;3.70;;;1.63;;